• Join FlightAware (Why Join?)
  • Login
  • US Flag 
11:44AM EST


 

Airport Tracker/Info


-or-


 

Live Flight TrackerFlight Track Log ✈ ASQ5374 ✈ 30-Jun-2013 ✈ KATL - KSHV

Flight Track Log - Related Links

Times and Time Zones

All times are in EDT time to prevent confusion due to time zone crossing. See the ASQ5374 flight status page for this flight to view local times or setup timezone preferences in your user account.

Time Position Orientation Groundspeed Altitude Reporting Facility
EDT Latitude Longitude Course Direction KTS MPH feet Rate Location/Type
09:41AM 33.6500 -84.5000 284° West 215 247 2,900  Level Atlanta TRACON
09:42AM 33.6667 -84.5833 284° West 263 303 5,400 2,520 Climbing Atlanta TRACON
09:43AM 33.6833 -84.6667 284° West 275 316 8,000 2,280 Climbing Atlanta TRACON
09:45AM 33.6892 -84.8703 272° West 280 322 13,100 1,860 Climbing Atlanta Center
09:46AM 33.6758 -84.9750 261° West 297 342 14,300 1,200 Climbing Atlanta Center
09:47AM 33.6644 -85.0872 263° West 325 374 15,600 1,260 Climbing Atlanta Center
09:48AM 33.6511 -85.2017 262° West 348 400 16,900 1,500 Climbing Atlanta Center
09:49AM 33.6500 -85.3164 269° West 356 410 18,600 1,500 Climbing Atlanta Center
09:50AM 33.6528 -85.4364 272° West 356 410 20,000 1,260 Climbing Atlanta Center
09:51AM 33.6553 -85.5661 271° West 356 410 21,200 1,200 Climbing Atlanta Center
09:52AM 33.6558 -85.6858 270° West 356 410 22,400 1,200 Climbing Atlanta Center
09:53AM 33.6606 -85.8058 273° West 362 417 23,600 1,020 Climbing Atlanta Center
09:54AM 33.6589 -85.9081 269° West 350 403 24,500 900 Climbing Atlanta Center
09:55AM 33.6592 -86.0253 270° West 350 403 25,400 900 Climbing Atlanta Center
09:56AM 33.6636 -86.1478 273° West 355 409 26,300 840 Climbing Atlanta Center
09:57AM 33.6633 -86.2725 270° West 366 421 27,100 780 Climbing Atlanta Center
09:58AM 33.6633 -86.3925 270° West 366 421 27,900 420 Climbing Atlanta Center
09:59AM 33.6669 -86.5172 272° West 366 421 28,000  Climbing Atlanta Center
10:00AM 33.6664 -86.6469 270° West 376 433 28,000  Level Atlanta Center
10:01AM 33.6678 -86.7794 271° West 384 442 28,000  Level Atlanta Center
10:02AM 33.6669 -86.9117 270° West 389 448 28,000  Level Atlanta Center
10:03AM 33.6533 -87.0433 263° West 394 453 28,000  Level Atlanta Center
10:04AM 33.6375 -87.1778 262° West 399 459 28,000  Level Atlanta Center
10:07AM 33.6011 -87.4942 262° West 410 472 28,000  Level Memphis Center
10:08AM 33.5875 -87.6267 263° West 410 472 28,000  Level Memphis Center
10:09AM 33.5736 -87.7567 263° West 410 472 28,000  Level Memphis Center
10:10AM 33.5575 -87.8894 262° West 410 472 28,000  Level Memphis Center
10:11AM 33.5433 -88.0219 263° West 410 472 28,000  Level Memphis Center
10:12AM 33.5269 -88.1494 261° West 410 472 28,000  Level Memphis Center
10:13AM 33.5164 -88.2667 264° West 410 472 28,000  Level Memphis Center
10:14AM 33.4997 -88.3917 261° West 405 466 28,000  Level Memphis Center
10:15AM 33.4872 -88.5364 264° West 400 460 28,000  Level Memphis Center
10:16AM 33.4850 -88.6636 269° West 405 466 28,000  Level Memphis Center
10:17AM 33.4844 -88.7956 270° West 400 460 28,000  Level Memphis Center
10:18AM 33.4819 -88.9250 269° West 400 460 28,000  Level Memphis Center
10:19AM 33.4833 -89.0594 271° West 400 460 28,000  Level Memphis Center
10:20AM 33.4783 -89.1917 267° West 400 460 28,000  Level Memphis Center
10:21AM 33.4775 -89.3211 270° West 400 460 28,000  Level Memphis Center
10:22AM 33.4764 -89.4581 269° West 405 466 28,000  Level Memphis Center
10:23AM 33.4753 -89.5925 269° West 405 466 28,000  Level Memphis Center
10:24AM 33.4719 -89.7297 268° West 405 466 28,000  Level Memphis Center
10:25AM 33.4683 -89.8667 268° West 405 466 28,000  Level Memphis Center
10:26AM 33.4689 -89.9911 270° West 410 472 28,000  Level Memphis Center
10:27AM 33.4669 -90.1306 269° West 415 478 28,000  Level Memphis Center
10:28AM 33.4631 -90.2700 268° West 420 483 28,000  Level Memphis Center
10:29AM 33.4400 -90.4044 258° West 420 483 28,000  Level Memphis Center
10:30AM 33.4067 -90.5414 254° West 425 489 28,000  Level Memphis Center
10:31AM 33.3689 -90.6781 252° West 435 501 28,000  Level Memphis Center
10:32AM 33.3286 -90.8097 250° West 440 506 28,000  Level Memphis Center
10:33AM 33.2928 -90.9439 252° West 435 501 28,000  Level Memphis Center
10:34AM 33.2544 -91.0778 251° West 430 495 28,000  Level Memphis Center
10:35AM 33.2161 -91.2114 251° West 430 495 28,000 -120 Level Memphis Center
10:36AM 33.1494 -91.4567 252° West 430 495 27,700 -780 Descending Fort Worth Center
10:37AM 33.1100 -91.5981 252° West 437 503 26,000 -1,680 Descending Fort Worth Center
10:38AM 33.0703 -91.7322 251° West 445 512 24,400 -1,020 Descending Fort Worth Center
10:39AM 33.0347 -91.8681 253° West 445 512 24,000 -240 Descending Fort Worth Center
10:40AM 32.9903 -92.0022 248° West 438 504 24,000  Level Fort Worth Center
10:41AM 32.9561 -92.1281 252° West 428 493 24,000  Level Fort Worth Center
10:42AM 32.9197 -92.2589 252° West 423 487 24,000 -240 Level Fort Worth Center
10:43AM 32.8833 -92.3894 252° West 418 481 23,600 -1,380 Descending Fort Worth Center
10:44AM 32.8425 -92.5203 250° West 418 481 21,300 -2,220 Descending Fort Worth Center
10:45AM 32.8019 -92.6561 250° West 424 488 19,200 -2,160 Descending Fort Worth Center
10:46AM 32.7631 -92.7867 251° West 424 488 17,000 -2,160 Descending Fort Worth Center
10:47AM 32.7192 -92.9047 246° West 412 474 14,900 -2,160 Descending Fort Worth Center
10:48AM 32.6708 -93.0158 243° Southwest 381 438 12,700 -1,920 Descending Fort Worth Center
10:49AM 32.6367 -93.1064 246° West 354 407 11,100 -1,560 Descending Fort Worth Center
10:50AM 32.5811 -93.1928 233° Southwest 318 366 9,600 -1,320 Descending Fort Worth Center
10:51AM 32.5131 -93.2231 201° Southwest 291 335 8,500 -1,200 Descending Fort Worth Center
10:52AM 32.4700 -93.3064 239° Southwest 277 319 7,200 -1,080 Descending Fort Worth Center
10:53AM 32.4367 -93.3742 240° Southwest 272 313 6,400 -900 Descending Fort Worth Center
10:54AM 32.4186 -93.4636 257° West 262 302 5,400 -900 Descending Fort Worth Center
10:55AM 32.4083 -93.5378 261° West 257 296 4,600 -1,020 Descending Fort Worth Center
10:56AM 32.3944 -93.6294 260° West 257 296 3,400 -1,200 Descending Fort Worth Center
10:57AM 32.3822 -93.7111 260° West 257 296 2,300 -900 Descending Fort Worth Center
10:58AM 32.3861 -93.7700 274° West 207 238 1,700 -780 Descending Fort Worth Center
10:59AM 32.4142 -93.8008 317° Northwest 148 170 800 -660 Descending Fort Worth Center
11:00AM 32.4358 -93.8319 310° West 136 157 400 -420 Descending Fort Worth Center